sensor_id;sensor_type;location;lat;lon;timestamp;temperature;humidity
36444;DHT22;24692;45.642;13.806;2022-10-16T00:01:05;15.20;99.90
36444;DHT22;24692;45.642;13.806;2022-10-16T00:03:31;15.30;99.90
36444;DHT22;24692;45.642;13.806;2022-10-16T00:06:00;15.30;99.90
36444;DHT22;24692;45.642;13.806;2022-10-16T00:08:26;15.20;99.90
36444;DHT22;24692;45.642;13.806;2022-10-16T00:10:51;15.20;99.90
36444;DHT22;24692;45.642;13.806;2022-10-16T00:13:17;15.10;99.90
36444;DHT22;24692;45.642;13.806;2022-10-16T00:15:45;15.10;99.90
36444;DHT22;24692;45.642;13.806;2022-10-16T00:18:12;15.10;99.90
36444;DHT22;24692;45.642;13.806;2022-10-16T00:20:37;15.00;99.90
36444;DHT22;24692;45.642;13.806;2022-10-16T00:23:04;15.10;99.90
36444;DHT22;24692;45.642;13.806;2022-10-16T00:25:30;15.10;99.90
36444;DHT22;24692;45.642;13.806;2022-10-16T00:27:59;15.10;99.90
36444;DHT22;24692;45.642;13.806;2022-10-16T00:30:24;15.10;99.90
36444;DHT22;24692;45.642;13.806;2022-10-16T00:32:52;15.10;99.90
36444;DHT22;24692;45.642;13.806;2022-10-16T00:35:17;15.00;99.90
36444;DHT22;24692;45.642;13.806;2022-10-16T00:37:43;15.00;99.90
36444;DHT22;24692;45.642;13.806;2022-10-16T00:40:09;15.00;99.90
36444;DHT22;24692;45.642;13.806;2022-10-16T00:42:35;15.00;99.90
36444;DHT22;24692;45.642;13.806;2022-10-16T00:45:01;15.00;99.90
36444;DHT22;24692;45.642;13.806;2022-10-16T00:47:34;15.00;99.90
36444;DHT22;24692;45.642;13.806;2022-10-16T00:53:10;15.00;99.90
36444;DHT22;24692;45.642;13.806;2022-10-16T00:55:36;15.00;99.90
36444;DHT22;24692;45.642;13.806;2022-10-16T00:58:02;15.00;99.90
36444;DHT22;24692;45.642;13.806;2022-10-16T01:00:27;15.00;99.90
36444;DHT22;24692;45.642;13.806;2022-10-16T01:02:58;15.10;99.90
36444;DHT22;24692;45.642;13.806;2022-10-16T01:05:33;15.10;99.90
36444;DHT22;24692;45.642;13.806;2022-10-16T01:08:26;15.00;99.90
36444;DHT22;24692;45.642;13.806;2022-10-16T01:11:26;15.00;99.90
36444;DHT22;24692;45.642;13.806;2022-10-16T01:13:55;15.00;99.90
36444;DHT22;24692;45.642;13.806;2022-10-16T01:16:40;14.90;99.90
36444;DHT22;24692;45.642;13.806;2022-10-16T01:19:14;15.00;99.90
36444;DHT22;24692;45.642;13.806;2022-10-16T01:21:46;15.00;99.90
36444;DHT22;24692;45.642;13.806;2022-10-16T01:24:38;15.00;99.90
36444;DHT22;24692;45.642;13.806;2022-10-16T01:27:25;14.90;99.90
36444;DHT22;24692;45.642;13.806;2022-10-16T01:30:06;14.90;99.90
36444;DHT22;24692;45.642;13.806;2022-10-16T01:32:50;14.80;99.90
36444;DHT22;24692;45.642;13.806;2022-10-16T01:35:27;14.90;99.90
36444;DHT22;24692;45.642;13.806;2022-10-16T01:38:05;14.90;99.90
36444;DHT22;24692;45.642;13.806;2022-10-16T01:40:34;14.90;99.90
36444;DHT22;24692;45.642;13.806;2022-10-16T01:43:17;14.90;99.90
36444;DHT22;24692;45.642;13.806;2022-10-16T01:45:45;14.80;99.90
36444;DHT22;24692;45.642;13.806;2022-10-16T01:48:18;14.80;99.90
36444;DHT22;24692;45.642;13.806;2022-10-16T01:50:59;14.80;99.90
36444;DHT22;24692;45.642;13.806;2022-10-16T01:53:26;14.90;99.90
36444;DHT22;24692;45.642;13.806;2022-10-16T01:55:54;14.90;99.90
36444;DHT22;24692;45.642;13.806;2022-10-16T01:58:22;14.90;99.90
36444;DHT22;24692;45.642;13.806;2022-10-16T02:00:48;14.90;99.90
36444;DHT22;24692;45.642;13.806;2022-10-16T02:03:18;14.90;99.90
36444;DHT22;24692;45.642;13.806;2022-10-16T02:05:53;14.90;99.90
36444;DHT22;24692;45.642;13.806;2022-10-16T02:08:23;14.80;99.90
36444;DHT22;24692;45.642;13.806;2022-10-16T02:10:49;14.80;99.90
36444;DHT22;24692;45.642;13.806;2022-10-16T02:16:02;14.80;99.90
36444;DHT22;24692;45.642;13.806;2022-10-16T02:18:27;14.90;99.90
36444;DHT22;24692;45.642;13.806;2022-10-16T02:21:19;15.00;99.90
36444;DHT22;24692;45.642;13.806;2022-10-16T02:24:10;15.00;99.90
36444;DHT22;24692;45.642;13.806;2022-10-16T02:29:39;15.10;99.90
36444;DHT22;24692;45.642;13.806;2022-10-16T02:32:07;15.10;99.90
36444;DHT22;24692;45.642;13.806;2022-10-16T02:34:36;15.10;99.90
36444;DHT22;24692;45.642;13.806;2022-10-16T02:37:04;15.20;99.90
36444;DHT22;24692;45.642;13.806;2022-10-16T02:39:31;15.20;99.90
36444;DHT22;24692;45.642;13.806;2022-10-16T02:41:57;15.20;99.90
36444;DHT22;24692;45.642;13.806;2022-10-16T02:44:22;15.20;99.90
36444;DHT22;24692;45.642;13.806;2022-10-16T02:46:48;15.30;99.90
36444;DHT22;24692;45.642;13.806;2022-10-16T02:49:13;15.30;99.90
36444;DHT22;24692;45.642;13.806;2022-10-16T02:51:39;15.30;99.90
36444;DHT22;24692;45.642;13.806;2022-10-16T02:54:05;15.30;99.90
36444;DHT22;24692;45.642;13.806;2022-10-16T02:56:30;15.30;99.90
36444;DHT22;24692;45.642;13.806;2022-10-16T02:58:56;15.40;99.90
36444;DHT22;24692;45.642;13.806;2022-10-16T03:01:23;15.40;99.90
36444;DHT22;24692;45.642;13.806;2022-10-16T03:03:49;15.50;99.90
36444;DHT22;24692;45.642;13.806;2022-10-16T03:06:15;15.60;99.90
36444;DHT22;24692;45.642;13.806;2022-10-16T03:08:40;15.60;99.90
36444;DHT22;24692;45.642;13.806;2022-10-16T03:11:06;15.60;99.90
36444;DHT22;24692;45.642;13.806;2022-10-16T03:13:32;15.60;99.90
36444;DHT22;24692;45.642;13.806;2022-10-16T03:15:57;15.70;99.90
36444;DHT22;24692;45.642;13.806;2022-10-16T03:18:23;15.60;99.90
36444;DHT22;24692;45.642;13.806;2022-10-16T03:20:48;15.60;99.90
36444;DHT22;24692;45.642;13.806;2022-10-16T03:23:14;15.60;99.90
36444;DHT22;24692;45.642;13.806;2022-10-16T03:25:40;15.60;99.90
36444;DHT22;24692;45.642;13.806;2022-10-16T03:28:05;15.60;99.90
36444;DHT22;24692;45.642;13.806;2022-10-16T03:30:31;15.60;99.90
36444;DHT22;24692;45.642;13.806;2022-10-16T03:32:57;15.60;99.90
36444;DHT22;24692;45.642;13.806;2022-10-16T03:35:23;15.70;99.90
36444;DHT22;24692;45.642;13.806;2022-10-16T03:37:49;15.70;99.90
36444;DHT22;24692;45.642;13.806;2022-10-16T03:40:16;15.70;99.90
36444;DHT22;24692;45.642;13.806;2022-10-16T03:42:43;15.70;99.90
36444;DHT22;24692;45.642;13.806;2022-10-16T03:45:09;15.80;99.90
36444;DHT22;24692;45.642;13.806;2022-10-16T03:47:35;15.80;99.90
36444;DHT22;24692;45.642;13.806;2022-10-16T03:50:01;15.90;99.90
36444;DHT22;24692;45.642;13.806;2022-10-16T03:52:27;15.90;99.90
36444;DHT22;24692;45.642;13.806;2022-10-16T03:54:53;15.80;99.90
36444;DHT22;24692;45.642;13.806;2022-10-16T03:57:18;15.80;99.90
36444;DHT22;24692;45.642;13.806;2022-10-16T03:59:45;15.70;99.90
36444;DHT22;24692;45.642;13.806;2022-10-16T04:02:11;15.70;99.90
36444;DHT22;24692;45.642;13.806;2022-10-16T04:04:37;15.70;99.90
36444;DHT22;24692;45.642;13.806;2022-10-16T04:07:02;15.70;99.90
36444;DHT22;24692;45.642;13.806;2022-10-16T04:09:28;15.70;99.90
36444;DHT22;24692;45.642;13.806;2022-10-16T04:11:54;15.60;99.90
36444;DHT22;24692;45.642;13.806;2022-10-16T04:14:19;15.50;99.90
36444;DHT22;24692;45.642;13.806;2022-10-16T04:16:45;15.50;99.90
36444;DHT22;24692;45.642;13.806;2022-10-16T04:19:11;15.50;99.90
36444;DHT22;24692;45.642;13.806;2022-10-16T04:21:37;15.50;99.90
36444;DHT22;24692;45.642;13.806;2022-10-16T04:24:03;15.50;99.90
36444;DHT22;24692;45.642;13.806;2022-10-16T04:26:28;15.50;99.90
36444;DHT22;24692;45.642;13.806;2022-10-16T04:28:54;15.40;99.90
36444;DHT22;24692;45.642;13.806;2022-10-16T04:31:20;15.40;99.90
36444;DHT22;24692;45.642;13.806;2022-10-16T04:33:46;15.30;99.90
36444;DHT22;24692;45.642;13.806;2022-10-16T04:36:11;15.20;99.90
36444;DHT22;24692;45.642;13.806;2022-10-16T04:38:37;15.20;99.90
36444;DHT22;24692;45.642;13.806;2022-10-16T04:41:05;15.10;99.90
36444;DHT22;24692;45.642;13.806;2022-10-16T04:43:31;15.10;99.90
36444;DHT22;24692;45.642;13.806;2022-10-16T04:45:57;15.00;99.90
36444;DHT22;24692;45.642;13.806;2022-10-16T04:48:22;15.00;99.90
36444;DHT22;24692;45.642;13.806;2022-10-16T04:50:48;15.00;99.90
36444;DHT22;24692;45.642;13.806;2022-10-16T04:53:14;15.00;99.90
36444;DHT22;24692;45.642;13.806;2022-10-16T04:55:41;15.00;99.90
36444;DHT22;24692;45.642;13.806;2022-10-16T04:58:07;14.90;99.90
36444;DHT22;24692;45.642;13.806;2022-10-16T05:00:33;14.80;99.90
36444;DHT22;24692;45.642;13.806;2022-10-16T05:02:59;14.80;99.90
36444;DHT22;24692;45.642;13.806;2022-10-16T05:05:27;14.90;99.90
36444;DHT22;24692;45.642;13.806;2022-10-16T05:07:53;14.90;99.90
36444;DHT22;24692;45.642;13.806;2022-10-16T05:10:19;14.90;99.90
36444;DHT22;24692;45.642;13.806;2022-10-16T05:12:45;14.90;99.90
36444;DHT22;24692;45.642;13.806;2022-10-16T05:15:11;14.90;99.90
36444;DHT22;24692;45.642;13.806;2022-10-16T05:17:37;15.00;99.90
36444;DHT22;24692;45.642;13.806;2022-10-16T05:20:02;14.90;99.90
36444;DHT22;24692;45.642;13.806;2022-10-16T05:22:28;14.90;99.90
36444;DHT22;24692;45.642;13.806;2022-10-16T05:24:54;14.90;99.90
36444;DHT22;24692;45.642;13.806;2022-10-16T05:27:20;14.90;99.90
36444;DHT22;24692;45.642;13.806;2022-10-16T05:29:47;15.00;99.90
36444;DHT22;24692;45.642;13.806;2022-10-16T05:32:17;15.10;99.90
36444;DHT22;24692;45.642;13.806;2022-10-16T05:34:43;15.10;99.90
36444;DHT22;24692;45.642;13.806;2022-10-16T05:37:09;15.10;99.90
36444;DHT22;24692;45.642;13.806;2022-10-16T05:39:34;15.10;99.90
36444;DHT22;24692;45.642;13.806;2022-10-16T05:42:02;15.00;99.90
36444;DHT22;24692;45.642;13.806;2022-10-16T05:44:27;15.00;99.90
36444;DHT22;24692;45.642;13.806;2022-10-16T05:46:53;14.90;99.90
36444;DHT22;24692;45.642;13.806;2022-10-16T05:49:19;14.90;99.90
36444;DHT22;24692;45.642;13.806;2022-10-16T05:51:44;14.90;99.90
36444;DHT22;24692;45.642;13.806;2022-10-16T05:54:10;15.00;99.90
36444;DHT22;24692;45.642;13.806;2022-10-16T05:56:36;15.00;99.90
36444;DHT22;24692;45.642;13.806;2022-10-16T05:59:03;15.10;99.90
36444;DHT22;24692;45.642;13.806;2022-10-16T06:01:29;15.20;99.90
36444;DHT22;24692;45.642;13.806;2022-10-16T06:03:56;15.30;99.90
36444;DHT22;24692;45.642;13.806;2022-10-16T06:06:24;15.20;99.90
36444;DHT22;24692;45.642;13.806;2022-10-16T06:08:52;15.30;99.90
36444;DHT22;24692;45.642;13.806;2022-10-16T06:11:20;15.40;99.90
36444;DHT22;24692;45.642;13.806;2022-10-16T06:13:50;15.40;99.90
36444;DHT22;24692;45.642;13.806;2022-10-16T06:16:16;15.60;99.90
36444;DHT22;24692;45.642;13.806;2022-10-16T06:18:41;15.60;99.90
36444;DHT22;24692;45.642;13.806;2022-10-16T06:21:22;15.70;99.90
36444;DHT22;24692;45.642;13.806;2022-10-16T06:23:48;15.80;99.90
36444;DHT22;24692;45.642;13.806;2022-10-16T06:26:16;15.80;99.90
36444;DHT22;24692;45.642;13.806;2022-10-16T06:28:42;15.80;99.90
36444;DHT22;24692;45.642;13.806;2022-10-16T06:31:10;15.90;99.90
36444;DHT22;24692;45.642;13.806;2022-10-16T06:33:37;16.00;99.90
36444;DHT22;24692;45.642;13.806;2022-10-16T06:36:11;16.20;99.90
36444;DHT22;24692;45.642;13.806;2022-10-16T06:38:37;16.50;99.90
36444;DHT22;24692;45.642;13.806;2022-10-16T06:41:04;16.60;99.90
36444;DHT22;24692;45.642;13.806;2022-10-16T06:43:30;16.70;99.90
36444;DHT22;24692;45.642;13.806;2022-10-16T06:46:03;17.00;99.90
36444;DHT22;24692;45.642;13.806;2022-10-16T06:48:29;17.00;99.90
36444;DHT22;24692;45.642;13.806;2022-10-16T06:50:59;17.20;99.90
36444;DHT22;24692;45.642;13.806;2022-10-16T06:53:27;17.30;99.90
36444;DHT22;24692;45.642;13.806;2022-10-16T06:55:52;17.40;99.90
36444;DHT22;24692;45.642;13.806;2022-10-16T06:58:18;17.50;99.90
36444;DHT22;24692;45.642;13.806;2022-10-16T07:00:44;17.50;99.90
36444;DHT22;24692;45.642;13.806;2022-10-16T07:03:10;17.60;99.90
36444;DHT22;24692;45.642;13.806;2022-10-16T07:05:40;17.90;99.90
36444;DHT22;24692;45.642;13.806;2022-10-16T07:08:06;18.30;99.90
36444;DHT22;24692;45.642;13.806;2022-10-16T07:10:33;18.70;99.90
36444;DHT22;24692;45.642;13.806;2022-10-16T07:12:58;18.70;99.90
36444;DHT22;24692;45.642;13.806;2022-10-16T07:15:25;18.80;99.90
36444;DHT22;24692;45.642;13.806;2022-10-16T07:17:51;18.80;99.90
36444;DHT22;24692;45.642;13.806;2022-10-16T07:20:17;18.90;99.90
36444;DHT22;24692;45.642;13.806;2022-10-16T07:22:42;18.90;99.90
36444;DHT22;24692;45.642;13.806;2022-10-16T07:25:08;19.10;99.90
36444;DHT22;24692;45.642;13.806;2022-10-16T07:27:34;19.30;99.90
36444;DHT22;24692;45.642;13.806;2022-10-16T07:30:00;19.70;99.90
36444;DHT22;24692;45.642;13.806;2022-10-16T07:32:26;19.90;99.90
36444;DHT22;24692;45.642;13.806;2022-10-16T07:34:52;20.10;99.90
36444;DHT22;24692;45.642;13.806;2022-10-16T07:37:18;20.50;99.90
36444;DHT22;24692;45.642;13.806;2022-10-16T07:39:44;20.90;99.90
36444;DHT22;24692;45.642;13.806;2022-10-16T07:42:10;21.70;99.90
36444;DHT22;24692;45.642;13.806;2022-10-16T07:44:36;21.80;99.90
36444;DHT22;24692;45.642;13.806;2022-10-16T07:47:01;21.90;99.90
36444;DHT22;24692;45.642;13.806;2022-10-16T07:49:28;22.50;99.90
36444;DHT22;24692;45.642;13.806;2022-10-16T07:51:53;22.90;99.90
36444;DHT22;24692;45.642;13.806;2022-10-16T07:54:19;23.30;99.90
36444;DHT22;24692;45.642;13.806;2022-10-16T07:56:45;23.60;99.90
36444;DHT22;24692;45.642;13.806;2022-10-16T07:59:11;23.70;99.90
36444;DHT22;24692;45.642;13.806;2022-10-16T08:01:36;23.90;99.90
36444;DHT22;24692;45.642;13.806;2022-10-16T08:04:02;24.00;99.90
36444;DHT22;24692;45.642;13.806;2022-10-16T08:06:27;24.50;99.90
36444;DHT22;24692;45.642;13.806;2022-10-16T08:08:54;24.70;99.90
36444;DHT22;24692;45.642;13.806;2022-10-16T08:11:19;24.50;99.90
36444;DHT22;24692;45.642;13.806;2022-10-16T08:13:45;24.80;99.90
36444;DHT22;24692;45.642;13.806;2022-10-16T08:16:10;25.10;99.90
36444;DHT22;24692;45.642;13.806;2022-10-16T08:18:40;25.40;99.90
36444;DHT22;24692;45.642;13.806;2022-10-16T08:21:07;25.50;99.90
36444;DHT22;24692;45.642;13.806;2022-10-16T08:23:34;25.80;99.90
36444;DHT22;24692;45.642;13.806;2022-10-16T08:26:06;26.10;99.90
36444;DHT22;24692;45.642;13.806;2022-10-16T08:28:31;26.40;99.90
36444;DHT22;24692;45.642;13.806;2022-10-16T08:31:08;26.80;99.90
36444;DHT22;24692;45.642;13.806;2022-10-16T08:33:34;27.50;99.90
36444;DHT22;24692;45.642;13.806;2022-10-16T08:36:01;28.00;99.90
36444;DHT22;24692;45.642;13.806;2022-10-16T08:38:27;27.90;99.90
36444;DHT22;24692;45.642;13.806;2022-10-16T08:40:57;28.30;99.90
36444;DHT22;24692;45.642;13.806;2022-10-16T08:43:41;28.20;99.90
36444;DHT22;24692;45.642;13.806;2022-10-16T08:46:37;28.10;99.90
36444;DHT22;24692;45.642;13.806;2022-10-16T08:49:11;27.90;99.90
36444;DHT22;24692;45.642;13.806;2022-10-16T08:51:39;27.60;99.90
36444;DHT22;24692;45.642;13.806;2022-10-16T08:54:29;28.10;99.90
36444;DHT22;24692;45.642;13.806;2022-10-16T08:57:00;29.10;99.90
36444;DHT22;24692;45.642;13.806;2022-10-16T08:59:29;29.50;99.90
36444;DHT22;24692;45.642;13.806;2022-10-16T09:01:55;30.00;99.90
36444;DHT22;24692;45.642;13.806;2022-10-16T09:13:14;28.00;99.90
36444;DHT22;24692;45.642;13.806;2022-10-16T09:15:52;27.30;99.90
36444;DHT22;24692;45.642;13.806;2022-10-16T09:18:29;27.10;99.90
36444;DHT22;24692;45.642;13.806;2022-10-16T09:21:03;26.50;99.90
36444;DHT22;24692;45.642;13.806;2022-10-16T09:23:34;25.60;99.90
36444;DHT22;24692;45.642;13.806;2022-10-16T09:26:01;25.10;99.90
36444;DHT22;24692;45.642;13.806;2022-10-16T09:28:28;24.90;99.90
36444;DHT22;24692;45.642;13.806;2022-10-16T09:30:53;24.70;99.90
36444;DHT22;24692;45.642;13.806;2022-10-16T09:33:23;24.60;99.90
36444;DHT22;24692;45.642;13.806;2022-10-16T09:35:54;25.00;99.90
36444;DHT22;24692;45.642;13.806;2022-10-16T09:38:39;25.70;99.90
36444;DHT22;24692;45.642;13.806;2022-10-16T09:41:33;25.10;99.90
36444;DHT22;24692;45.642;13.806;2022-10-16T09:44:00;24.80;99.90
36444;DHT22;24692;45.642;13.806;2022-10-16T09:49:00;24.50;99.90
36444;DHT22;24692;45.642;13.806;2022-10-16T09:56:28;25.40;99.90
36444;DHT22;24692;45.642;13.806;2022-10-16T09:58:57;25.70;99.90
36444;DHT22;24692;45.642;13.806;2022-10-16T10:01:36;25.80;99.90
36444;DHT22;24692;45.642;13.806;2022-10-16T10:04:03;26.60;99.90
36444;DHT22;24692;45.642;13.806;2022-10-16T10:06:33;27.40;99.90
36444;DHT22;24692;45.642;13.806;2022-10-16T10:09:26;27.40;99.90
36444;DHT22;24692;45.642;13.806;2022-10-16T10:11:57;28.00;99.90
36444;DHT22;24692;45.642;13.806;2022-10-16T10:14:41;28.70;99.90
36444;DHT22;24692;45.642;13.806;2022-10-16T10:17:12;29.20;99.90
36444;DHT22;24692;45.642;13.806;2022-10-16T10:22:32;29.90;99.90
36444;DHT22;24692;45.642;13.806;2022-10-16T10:36:03;29.40;99.90
36444;DHT22;24692;45.642;13.806;2022-10-16T10:46:41;28.70;99.90
36444;DHT22;24692;45.642;13.806;2022-10-16T10:49:19;27.10;99.90
36444;DHT22;24692;45.642;13.806;2022-10-16T10:54:55;26.40;99.90
36444;DHT22;24692;45.642;13.806;2022-10-16T10:57:30;26.20;99.90
36444;DHT22;24692;45.642;13.806;2022-10-16T11:05:28;26.40;99.90
36444;DHT22;24692;45.642;13.806;2022-10-16T11:08:18;26.40;99.90
36444;DHT22;24692;45.642;13.806;2022-10-16T11:11:00;27.30;99.90
36444;DHT22;24692;45.642;13.806;2022-10-16T11:16:29;26.20;99.90
36444;DHT22;24692;45.642;13.806;2022-10-16T11:21:54;27.70;99.90
36444;DHT22;24692;45.642;13.806;2022-10-16T11:24:26;28.60;99.90
36444;DHT22;24692;45.642;13.806;2022-10-16T11:26:56;28.80;99.90
36444;DHT22;24692;45.642;13.806;2022-10-16T11:29:29;28.40;99.90
36444;DHT22;24692;45.642;13.806;2022-10-16T11:32:15;28.70;99.90
36444;DHT22;24692;45.642;13.806;2022-10-16T11:34:52;29.20;99.90
36444;DHT22;24692;45.642;13.806;2022-10-16T11:37:41;29.40;99.90
36444;DHT22;24692;45.642;13.806;2022-10-16T11:40:23;29.70;99.90
36444;DHT22;24692;45.642;13.806;2022-10-16T11:43:14;29.80;99.90
36444;DHT22;24692;45.642;13.806;2022-10-16T11:45:49;29.50;99.90
36444;DHT22;24692;45.642;13.806;2022-10-16T11:50:50;29.30;99.90
36444;DHT22;24692;45.642;13.806;2022-10-16T11:53:46;29.80;99.90
36444;DHT22;24692;45.642;13.806;2022-10-16T11:56:17;30.10;99.90
36444;DHT22;24692;45.642;13.806;2022-10-16T12:06:34;29.30;99.90
36444;DHT22;24692;45.642;13.806;2022-10-16T12:09:02;29.40;99.90
36444;DHT22;24692;45.642;13.806;2022-10-16T12:16:50;28.80;99.90
36444;DHT22;24692;45.642;13.806;2022-10-16T12:19:17;28.80;99.90
36444;DHT22;24692;45.642;13.806;2022-10-16T12:21:44;28.40;99.90
36444;DHT22;24692;45.642;13.806;2022-10-16T12:27:31;28.20;99.90
36444;DHT22;24692;45.642;13.806;2022-10-16T12:30:03;28.30;99.90
36444;DHT22;24692;45.642;13.806;2022-10-16T12:32:37;29.10;99.90
36444;DHT22;24692;45.642;13.806;2022-10-16T12:35:16;29.30;99.90
36444;DHT22;24692;45.642;13.806;2022-10-16T12:37:43;28.80;99.90
36444;DHT22;24692;45.642;13.806;2022-10-16T12:40:15;29.80;99.90
36444;DHT22;24692;45.642;13.806;2022-10-16T12:42:42;28.60;99.90
36444;DHT22;24692;45.642;13.806;2022-10-16T12:47:54;29.10;99.90
36444;DHT22;24692;45.642;13.806;2022-10-16T12:50:37;29.20;99.90
36444;DHT22;24692;45.642;13.806;2022-10-16T12:53:18;28.70;99.90
36444;DHT22;24692;45.642;13.806;2022-10-16T12:56:03;28.00;99.90
36444;DHT22;24692;45.642;13.806;2022-10-16T13:10:32;27.00;99.90
36444;DHT22;24692;45.642;13.806;2022-10-16T13:25:18;27.20;99.90
36444;DHT22;24692;45.642;13.806;2022-10-16T13:28:02;27.00;99.90
36444;DHT22;24692;45.642;13.806;2022-10-16T13:30:53;27.40;99.90
36444;DHT22;24692;45.642;13.806;2022-10-16T13:33:34;27.50;99.90
36444;DHT22;24692;45.642;13.806;2022-10-16T13:36:01;27.30;99.90
36444;DHT22;24692;45.642;13.806;2022-10-16T13:38:34;26.90;99.90
36444;DHT22;24692;45.642;13.806;2022-10-16T13:41:05;26.40;99.90
36444;DHT22;24692;45.642;13.806;2022-10-16T13:43:47;26.50;99.90
36444;DHT22;24692;45.642;13.806;2022-10-16T13:46:17;26.60;99.90
36444;DHT22;24692;45.642;13.806;2022-10-16T13:48:43;27.00;99.90
36444;DHT22;24692;45.642;13.806;2022-10-16T13:51:17;26.90;99.90
36444;DHT22;24692;45.642;13.806;2022-10-16T13:53:43;26.60;99.90
36444;DHT22;24692;45.642;13.806;2022-10-16T13:56:15;26.50;99.90
36444;DHT22;24692;45.642;13.806;2022-10-16T13:58:41;26.10;99.90
36444;DHT22;24692;45.642;13.806;2022-10-16T14:01:23;26.40;99.90
36444;DHT22;24692;45.642;13.806;2022-10-16T14:03:51;26.90;99.90
36444;DHT22;24692;45.642;13.806;2022-10-16T14:06:21;26.80;99.90
36444;DHT22;24692;45.642;13.806;2022-10-16T14:11:24;26.20;99.90
36444;DHT22;24692;45.642;13.806;2022-10-16T14:13:51;25.70;99.90
36444;DHT22;24692;45.642;13.806;2022-10-16T14:16:22;25.20;99.90
36444;DHT22;24692;45.642;13.806;2022-10-16T14:19:01;25.40;99.90
36444;DHT22;24692;45.642;13.806;2022-10-16T14:21:27;25.40;99.90
36444;DHT22;24692;45.642;13.806;2022-10-16T14:23:54;25.30;99.90
36444;DHT22;24692;45.642;13.806;2022-10-16T14:26:27;25.60;99.90
36444;DHT22;24692;45.642;13.806;2022-10-16T14:29:14;25.30;99.90
36444;DHT22;24692;45.642;13.806;2022-10-16T14:31:40;24.80;99.90
36444;DHT22;24692;45.642;13.806;2022-10-16T14:36:56;25.10;99.90
36444;DHT22;24692;45.642;13.806;2022-10-16T14:39:25;25.60;99.90
36444;DHT22;24692;45.642;13.806;2022-10-16T14:41:52;25.80;99.90
36444;DHT22;24692;45.642;13.806;2022-10-16T14:44:26;26.00;99.90
36444;DHT22;24692;45.642;13.806;2022-10-16T14:46:52;25.90;99.90
36444;DHT22;24692;45.642;13.806;2022-10-16T14:49:19;25.80;99.90
36444;DHT22;24692;45.642;13.806;2022-10-16T14:51:46;25.50;99.90
36444;DHT22;24692;45.642;13.806;2022-10-16T14:54:13;25.30;99.90
36444;DHT22;24692;45.642;13.806;2022-10-16T14:56:55;24.70;99.90
36444;DHT22;24692;45.642;13.806;2022-10-16T14:59:39;24.80;99.90
36444;DHT22;24692;45.642;13.806;2022-10-16T15:02:17;25.00;99.90
36444;DHT22;24692;45.642;13.806;2022-10-16T15:04:44;25.20;99.90
36444;DHT22;24692;45.642;13.806;2022-10-16T15:07:09;25.20;99.90
36444;DHT22;24692;45.642;13.806;2022-10-16T15:09:35;24.70;99.90
36444;DHT22;24692;45.642;13.806;2022-10-16T15:12:00;24.20;99.90
36444;DHT22;24692;45.642;13.806;2022-10-16T15:14:26;24.40;99.90
36444;DHT22;24692;45.642;13.806;2022-10-16T15:16:52;24.10;99.90
36444;DHT22;24692;45.642;13.806;2022-10-16T15:19:17;23.80;99.90
36444;DHT22;24692;45.642;13.806;2022-10-16T15:21:43;23.70;99.90
36444;DHT22;24692;45.642;13.806;2022-10-16T15:24:12;23.20;99.90
36444;DHT22;24692;45.642;13.806;2022-10-16T15:26:38;22.70;99.90
36444;DHT22;24692;45.642;13.806;2022-10-16T15:29:04;22.50;99.90
36444;DHT22;24692;45.642;13.806;2022-10-16T15:31:30;22.30;99.90
36444;DHT22;24692;45.642;13.806;2022-10-16T15:33:56;22.20;99.90
36444;DHT22;24692;45.642;13.806;2022-10-16T15:36:32;22.20;99.90
36444;DHT22;24692;45.642;13.806;2022-10-16T15:39:17;22.00;99.90
36444;DHT22;24692;45.642;13.806;2022-10-16T15:41:45;22.00;99.90
36444;DHT22;24692;45.642;13.806;2022-10-16T15:44:16;22.00;99.90
36444;DHT22;24692;45.642;13.806;2022-10-16T15:46:41;22.00;99.90
36444;DHT22;24692;45.642;13.806;2022-10-16T15:49:08;21.90;99.90
36444;DHT22;24692;45.642;13.806;2022-10-16T15:51:38;21.90;99.90
36444;DHT22;24692;45.642;13.806;2022-10-16T15:54:04;21.70;99.90
36444;DHT22;24692;45.642;13.806;2022-10-16T15:56:29;21.40;99.90
36444;DHT22;24692;45.642;13.806;2022-10-16T15:58:59;21.20;99.90
36444;DHT22;24692;45.642;13.806;2022-10-16T16:01:25;21.10;99.90
36444;DHT22;24692;45.642;13.806;2022-10-16T16:03:53;20.90;99.90
36444;DHT22;24692;45.642;13.806;2022-10-16T16:06:19;20.70;99.90
36444;DHT22;24692;45.642;13.806;2022-10-16T16:08:45;20.50;99.90
36444;DHT22;24692;45.642;13.806;2022-10-16T16:11:13;20.40;99.90
36444;DHT22;24692;45.642;13.806;2022-10-16T16:13:39;20.40;99.90
36444;DHT22;24692;45.642;13.806;2022-10-16T16:16:11;20.30;99.90
36444;DHT22;24692;45.642;13.806;2022-10-16T16:18:37;20.10;99.90
36444;DHT22;24692;45.642;13.806;2022-10-16T16:21:03;20.00;99.90
36444;DHT22;24692;45.642;13.806;2022-10-16T16:23:29;19.80;99.90
36444;DHT22;24692;45.642;13.806;2022-10-16T16:26:22;19.70;99.90
36444;DHT22;24692;45.642;13.806;2022-10-16T16:28:51;19.70;99.90
36444;DHT22;24692;45.642;13.806;2022-10-16T16:31:17;19.60;99.90
36444;DHT22;24692;45.642;13.806;2022-10-16T16:33:43;19.50;99.90
36444;DHT22;24692;45.642;13.806;2022-10-16T16:36:09;19.40;99.90
36444;DHT22;24692;45.642;13.806;2022-10-16T16:38:35;19.30;99.90
36444;DHT22;24692;45.642;13.806;2022-10-16T16:41:11;19.10;99.90
36444;DHT22;24692;45.642;13.806;2022-10-16T16:43:37;19.10;99.90
36444;DHT22;24692;45.642;13.806;2022-10-16T16:46:02;19.00;99.90
36444;DHT22;24692;45.642;13.806;2022-10-16T16:48:29;19.00;99.90
36444;DHT22;24692;45.642;13.806;2022-10-16T16:50:54;18.90;99.90
36444;DHT22;24692;45.642;13.806;2022-10-16T16:53:21;18.90;99.90
36444;DHT22;24692;45.642;13.806;2022-10-16T16:55:47;18.90;99.90
36444;DHT22;24692;45.642;13.806;2022-10-16T16:58:13;18.80;99.90
36444;DHT22;24692;45.642;13.806;2022-10-16T17:00:45;18.70;99.90
36444;DHT22;24692;45.642;13.806;2022-10-16T17:03:11;18.80;99.90
36444;DHT22;24692;45.642;13.806;2022-10-16T17:05:36;18.80;99.90
36444;DHT22;24692;45.642;13.806;2022-10-16T17:08:02;18.80;99.90
36444;DHT22;24692;45.642;13.806;2022-10-16T17:10:31;18.80;99.90
36444;DHT22;24692;45.642;13.806;2022-10-16T17:12:57;18.70;99.90
36444;DHT22;24692;45.642;13.806;2022-10-16T17:15:22;18.70;99.90
36444;DHT22;24692;45.642;13.806;2022-10-16T17:17:48;18.70;99.90
36444;DHT22;24692;45.642;13.806;2022-10-16T17:20:14;18.70;99.90
36444;DHT22;24692;45.642;13.806;2022-10-16T17:22:40;18.70;99.90